createdAt,value
2023-02-19T00:01:33.282Z,3.97
2023-02-19T00:04:00.965Z,3.07
2023-02-19T00:06:28.034Z,4.50
2023-02-19T00:08:54.636Z,3.40
2023-02-19T00:11:22.300Z,3.33
2023-02-19T00:13:49.772Z,2.40
2023-02-19T00:16:17.162Z,3.37
2023-02-19T00:18:43.660Z,2.53
2023-02-19T00:21:10.621Z,3.93
2023-02-19T00:23:37.545Z,4.83
2023-02-19T00:26:17.148Z,5.33
2023-02-19T00:28:44.529Z,4.97
2023-02-19T00:31:17.949Z,9.23
2023-02-19T00:33:44.923Z,4.23
2023-02-19T00:36:11.404Z,3.57
2023-02-19T00:38:38.109Z,3.17
2023-02-19T00:41:19.885Z,3.70
2023-02-19T00:43:49.472Z,3.07
2023-02-19T00:46:16.953Z,3.67
2023-02-19T00:48:43.538Z,3.27
2023-02-19T00:51:10.265Z,4.53
2023-02-19T00:53:37.016Z,3.10
2023-02-19T00:56:03.648Z,4.53
2023-02-19T00:58:30.274Z,3.13
2023-02-19T01:00:56.892Z,3.43
2023-02-19T01:03:23.411Z,3.83
2023-02-19T01:05:50.345Z,2.53
2023-02-19T01:08:16.973Z,2.43
2023-02-19T01:10:43.504Z,4.50
2023-02-19T01:13:10.027Z,3.43
2023-02-19T01:15:36.566Z,4.60
2023-02-19T01:18:03.072Z,3.93
2023-02-19T01:20:29.580Z,5.07
2023-02-19T01:22:56.060Z,4.80
2023-02-19T01:25:22.606Z,5.87
2023-02-19T01:27:49.145Z,5.43
2023-02-19T01:30:15.656Z,5.03
2023-02-19T01:32:42.164Z,3.63
2023-02-19T01:35:08.688Z,3.77
2023-02-19T01:37:35.205Z,4.20
2023-02-19T01:40:01.714Z,3.70
2023-02-19T01:42:28.258Z,4.27
2023-02-19T01:44:54.709Z,5.80
2023-02-19T01:47:21.313Z,5.63
2023-02-19T01:49:49.086Z,6.20
2023-02-19T01:52:15.566Z,7.03
2023-02-19T01:54:42.524Z,6.50
2023-02-19T01:57:11.389Z,6.53
2023-02-19T01:59:38.375Z,7.47
2023-02-19T02:02:04.912Z,8.83
2023-02-19T02:04:31.990Z,6.17
2023-02-19T02:06:58.536Z,6.03
2023-02-19T02:09:45.745Z,6.53
2023-02-19T02:12:12.943Z,5.57
2023-02-19T02:14:40.489Z,5.20
2023-02-19T02:17:13.079Z,4.37
2023-02-19T02:19:51.671Z,4.03
2023-02-19T02:22:22.742Z,4.73
2023-02-19T02:24:49.251Z,4.37
2023-02-19T02:27:24.667Z,3.77
2023-02-19T02:30:10.152Z,2.73
2023-02-19T02:32:53.516Z,3.07
2023-02-19T02:35:22.452Z,3.60
2023-02-19T02:37:48.948Z,3.37
2023-02-19T02:40:15.450Z,3.20
2023-02-19T02:42:42.743Z,3.40
2023-02-19T02:45:38.054Z,4.27
2023-02-19T02:48:09.408Z,3.60
2023-02-19T02:50:43.584Z,3.73
2023-02-19T02:53:30.848Z,3.53
2023-02-19T02:55:57.753Z,3.90
2023-02-19T02:58:24.577Z,3.40
2023-02-19T03:01:11.582Z,4.20
2023-02-19T03:03:38.413Z,3.77
2023-02-19T03:06:05.284Z,3.07
2023-02-19T03:08:32.642Z,2.83
2023-02-19T03:11:20.469Z,2.77
2023-02-19T03:14:22.375Z,3.67
2023-02-19T03:17:07.478Z,3.27
2023-02-19T03:19:35.306Z,3.67
2023-02-19T03:22:10.875Z,3.60
2023-02-19T03:25:04.285Z,2.70
2023-02-19T03:27:30.830Z,2.80
2023-02-19T03:29:57.725Z,2.37
2023-02-19T03:32:25.552Z,2.40
2023-02-19T03:35:00.201Z,2.00
2023-02-19T03:37:30.533Z,2.33
2023-02-19T03:39:57.034Z,2.40
2023-02-19T03:42:37.668Z,2.23
2023-02-19T03:45:22.925Z,3.27
2023-02-19T03:47:51.311Z,2.30
2023-02-19T03:50:38.080Z,3.03
2023-02-19T03:53:30.933Z,2.50
2023-02-19T03:56:11.014Z,1.93
2023-02-19T03:58:42.268Z,2.20
2023-02-19T04:01:10.446Z,3.40
2023-02-19T04:03:57.553Z,3.47
2023-02-19T04:06:26.308Z,3.40
2023-02-19T04:08:53.564Z,5.63
2023-02-19T04:11:20.090Z,6.10
2023-02-19T04:13:47.742Z,8.20
2023-02-19T04:16:24.440Z,7.57
2023-02-19T04:18:52.063Z,7.10
2023-02-19T04:21:19.125Z,7.27
2023-02-19T04:23:45.993Z,6.60
2023-02-19T04:26:12.772Z,5.70
2023-02-19T04:28:39.261Z,5.87
2023-02-19T04:31:05.874Z,6.10
2023-02-19T04:33:32.418Z,5.40
2023-02-19T04:35:58.917Z,5.77
2023-02-19T04:38:25.463Z,5.07
2023-02-19T04:40:51.934Z,5.17
2023-02-19T04:43:18.613Z,5.20
2023-02-19T04:45:45.153Z,5.63
2023-02-19T04:48:11.705Z,8.33
2023-02-19T04:50:39.337Z,6.43
2023-02-19T04:53:06.068Z,7.23
2023-02-19T04:55:32.648Z,7.33
2023-02-19T04:57:59.334Z,7.67
2023-02-19T05:00:25.865Z,7.60
2023-02-19T05:02:52.332Z,7.50
2023-02-19T05:05:18.824Z,6.90
2023-02-19T05:07:45.381Z,6.77
2023-02-19T05:10:11.884Z,6.07
2023-02-19T05:12:38.392Z,6.47
2023-02-19T05:15:05.013Z,6.00
2023-02-19T05:17:33.411Z,6.67
2023-02-19T05:19:59.892Z,6.90
2023-02-19T05:22:26.373Z,5.80
2023-02-19T05:24:52.889Z,5.23
2023-02-19T05:27:19.376Z,5.23
2023-02-19T05:29:45.859Z,5.07
2023-02-19T05:32:12.405Z,5.53
2023-02-19T05:34:38.994Z,5.90
2023-02-19T05:37:05.497Z,6.00
2023-02-19T05:39:32.021Z,3.97
2023-02-19T05:41:58.509Z,4.83
2023-02-19T05:44:25.035Z,5.20
2023-02-19T05:46:51.541Z,5.87
2023-02-19T05:49:18.042Z,6.77
2023-02-19T05:51:44.635Z,5.53
2023-02-19T05:54:11.198Z,5.27
2023-02-19T05:56:40.933Z,6.53
2023-02-19T05:59:13.424Z,7.83
2023-02-19T06:01:39.929Z,7.90
2023-02-19T06:04:06.530Z,6.83
2023-02-19T06:06:33.077Z,5.87
2023-02-19T06:08:59.569Z,7.30
2023-02-19T06:11:26.156Z,7.57
2023-02-19T06:13:52.701Z,6.33
2023-02-19T06:16:19.495Z,6.53
2023-02-19T06:18:46.131Z,3.83
2023-02-19T06:21:12.896Z,2.83
2023-02-19T06:23:39.581Z,2.23
2023-02-19T06:26:12.227Z,1.80
2023-02-19T06:28:38.774Z,1.73
2023-02-19T06:31:05.656Z,4.70
2023-02-19T06:33:32.309Z,2.73
2023-02-19T06:36:00.104Z,3.03
2023-02-19T06:38:26.709Z,4.40
2023-02-19T06:40:53.205Z,4.47
2023-02-19T06:43:19.715Z,4.40
2023-02-19T06:45:46.811Z,4.20
2023-02-19T06:48:13.631Z,4.13
2023-02-19T06:50:40.163Z,5.60
2023-02-19T06:53:06.674Z,5.90
2023-02-19T06:55:33.161Z,5.47
2023-02-19T06:57:59.669Z,6.60
2023-02-19T07:00:26.156Z,6.60
2023-02-19T07:02:56.639Z,6.93
2023-02-19T07:05:23.485Z,7.13
2023-02-19T07:07:50.066Z,8.80
2023-02-19T07:10:16.637Z,8.57
2023-02-19T07:12:43.115Z,9.53
2023-02-19T07:15:09.673Z,9.23
2023-02-19T07:17:36.158Z,9.37
2023-02-19T07:20:02.672Z,10.07
2023-02-19T07:22:29.211Z,12.73
2023-02-19T07:24:55.733Z,12.77
2023-02-19T07:27:22.249Z,12.37
2023-02-19T07:29:48.786Z,11.17
2023-02-19T07:32:15.298Z,13.43
2023-02-19T07:34:41.855Z,10.70
2023-02-19T07:37:08.641Z,11.67
2023-02-19T07:39:35.135Z,12.60
2023-02-19T07:42:01.615Z,13.07
2023-02-19T07:44:28.119Z,12.07
2023-02-19T07:46:54.591Z,15.37
2023-02-19T07:49:21.158Z,15.00
2023-02-19T07:51:47.647Z,17.67
2023-02-19T07:54:14.129Z,15.73
2023-02-19T07:56:40.634Z,16.03
2023-02-19T07:59:07.116Z,14.20
2023-02-19T08:01:52.405Z,16.13
2023-02-19T08:04:18.953Z,15.33
2023-02-19T08:06:45.479Z,14.20
2023-02-19T08:09:11.989Z,11.80
2023-02-19T08:11:57.188Z,11.83
2023-02-19T08:14:27.156Z,11.87
2023-02-19T08:16:53.710Z,12.40
2023-02-19T08:19:20.335Z,12.53
2023-02-19T08:21:46.836Z,13.40
2023-02-19T08:24:13.306Z,15.13
2023-02-19T08:26:39.824Z,13.50
2023-02-19T08:29:06.364Z,13.20
2023-02-19T08:31:33.155Z,12.37
2023-02-19T08:33:59.690Z,11.20
2023-02-19T08:36:26.376Z,11.40
2023-02-19T08:38:52.877Z,14.03
2023-02-19T08:41:19.445Z,10.00
2023-02-19T08:43:45.982Z,9.23
2023-02-19T08:46:12.825Z,9.50
2023-02-19T08:48:39.560Z,8.43
2023-02-19T08:51:08.555Z,8.67
2023-02-19T08:53:35.522Z,8.03
2023-02-19T08:56:08.960Z,10.97
2023-02-19T08:58:36.245Z,25.10
2023-02-19T09:01:03.134Z,15.53
2023-02-19T09:03:29.731Z,16.20
2023-02-19T09:05:56.266Z,26.27
2023-02-19T09:08:22.772Z,24.63
2023-02-19T09:10:59.280Z,19.97
2023-02-19T09:13:25.818Z,12.10
2023-02-19T09:15:52.350Z,5.87
2023-02-19T09:18:18.930Z,7.00
2023-02-19T09:20:45.423Z,9.73
2023-02-19T09:23:11.953Z,7.80
2023-02-19T09:25:38.492Z,8.80
2023-02-19T09:28:04.996Z,10.70
2023-02-19T09:30:31.576Z,8.73
2023-02-19T09:32:58.105Z,8.37
2023-02-19T09:35:24.697Z,7.67
2023-02-19T09:37:51.299Z,9.00
2023-02-19T09:40:21.776Z,9.10
2023-02-19T09:42:48.712Z,9.13
2023-02-19T09:45:17.718Z,7.97
2023-02-19T09:47:44.193Z,10.20
2023-02-19T09:50:13.073Z,6.87
2023-02-19T09:52:47.776Z,2.90
2023-02-19T09:55:15.453Z,1.83
2023-02-19T09:57:41.939Z,2.27
2023-02-19T10:00:10.687Z,1.67
2023-02-19T10:02:37.246Z,1.30
2023-02-19T10:05:03.867Z,2.30
2023-02-19T10:07:35.387Z,1.80
2023-02-19T10:10:08.520Z,1.80
2023-02-19T10:12:35.261Z,2.03
2023-02-19T10:15:05.366Z,1.43
2023-02-19T10:17:34.621Z,2.37
2023-02-19T10:20:03.522Z,1.53
2023-02-19T10:22:30.594Z,3.43
2023-02-19T10:24:57.113Z,2.20
2023-02-19T10:27:23.648Z,2.17
2023-02-19T10:29:51.010Z,1.83
2023-02-19T10:32:21.006Z,4.23
2023-02-19T10:34:47.684Z,2.43
2023-02-19T10:37:15.861Z,17.50
2023-02-19T10:39:46.103Z,2.23
2023-02-19T10:42:16.916Z,13.37
2023-02-19T10:44:44.115Z,12.63
2023-02-19T10:47:14.919Z,7.83
2023-02-19T10:49:44.099Z,9.67
2023-02-19T10:52:17.913Z,4.77
2023-02-19T10:54:44.957Z,2.30
2023-02-19T10:57:30.116Z,3.00
2023-02-19T10:59:57.961Z,4.73
2023-02-19T11:02:24.656Z,8.93
2023-02-19T11:05:06.445Z,10.07
2023-02-19T11:07:32.981Z,8.30
2023-02-19T11:09:59.593Z,6.47
2023-02-19T11:12:27.254Z,4.73
2023-02-19T11:14:53.823Z,4.93
2023-02-19T11:17:25.532Z,5.37
2023-02-19T11:19:52.550Z,6.30
2023-02-19T11:22:20.228Z,5.77
2023-02-19T11:24:50.183Z,3.97
2023-02-19T11:27:21.322Z,4.20
2023-02-19T11:29:47.835Z,4.87
2023-02-19T11:32:20.584Z,3.57
2023-02-19T11:34:47.594Z,5.57
2023-02-19T11:37:17.817Z,3.23
2023-02-19T11:39:44.880Z,4.33
2023-02-19T11:42:23.811Z,9.03
2023-02-19T11:44:57.606Z,10.07
2023-02-19T11:47:42.550Z,9.20
2023-02-19T11:50:43.031Z,8.17
2023-02-19T11:53:22.353Z,5.97
2023-02-19T11:56:02.719Z,5.93
2023-02-19T11:58:47.934Z,5.63
2023-02-19T12:01:33.668Z,7.03
2023-02-19T12:04:18.908Z,10.17
2023-02-19T12:06:51.504Z,11.50
2023-02-19T12:09:30.420Z,8.57
2023-02-19T12:11:57.957Z,6.77
2023-02-19T12:14:33.632Z,10.27
2023-02-19T12:17:02.871Z,8.80
2023-02-19T12:19:47.789Z,8.20
2023-02-19T12:22:27.258Z,7.17
2023-02-19T12:25:02.905Z,3.33
2023-02-19T12:27:46.245Z,3.87
2023-02-19T12:30:32.021Z,2.70
2023-02-19T12:33:07.630Z,5.60
2023-02-19T12:35:40.354Z,4.37
2023-02-19T12:38:12.898Z,4.23
2023-02-19T12:40:45.512Z,3.77
2023-02-19T12:43:13.924Z,5.87
2023-02-19T12:45:46.544Z,3.83
2023-02-19T12:48:19.153Z,5.63
2023-02-19T12:50:46.090Z,3.87
2023-02-19T12:53:32.136Z,3.83
2023-02-19T12:55:58.676Z,2.50
2023-02-19T12:58:54.591Z,3.70
2023-02-19T13:01:22.772Z,3.43
2023-02-19T13:04:05.796Z,1.90
2023-02-19T13:06:36.517Z,2.73
2023-02-19T13:09:06.704Z,1.83
2023-02-19T13:11:36.729Z,3.27
2023-02-19T13:14:04.397Z,4.17
2023-02-19T13:16:33.576Z,5.67
2023-02-19T13:19:00.685Z,2.77
2023-02-19T13:21:47.038Z,1.93
2023-02-19T13:24:17.471Z,1.40
2023-02-19T13:26:52.989Z,2.50
2023-02-19T13:29:28.112Z,1.93
2023-02-19T13:32:14.486Z,1.50
2023-02-19T13:35:11.545Z,3.43
2023-02-19T13:37:38.264Z,2.73
2023-02-19T13:40:23.400Z,2.93
2023-02-19T13:42:56.887Z,2.07
2023-02-19T13:45:31.611Z,7.13
2023-02-19T13:47:58.221Z,3.13
2023-02-19T13:50:31.823Z,1.87
2023-02-19T13:52:58.810Z,2.77
2023-02-19T13:55:44.271Z,4.27
2023-02-19T13:58:29.702Z,5.63
2023-02-19T14:01:05.194Z,5.07
2023-02-19T14:03:36.011Z,4.80
2023-02-19T14:06:06.756Z,3.77
2023-02-19T14:08:49.739Z,5.40
2023-02-19T14:11:16.440Z,4.20
2023-02-19T14:13:52.256Z,2.90
2023-02-19T14:16:41.992Z,4.27
2023-02-19T14:19:28.748Z,2.73
2023-02-19T14:21:55.222Z,5.83
2023-02-19T14:24:23.929Z,3.77
2023-02-19T14:26:50.457Z,3.50
2023-02-19T14:29:16.985Z,2.60
2023-02-19T14:31:44.716Z,2.60
2023-02-19T14:34:27.032Z,4.00
2023-02-19T14:36:53.970Z,3.07
2023-02-19T14:39:22.006Z,2.90
2023-02-19T14:41:49.889Z,3.50
2023-02-19T14:44:25.049Z,3.50
2023-02-19T14:46:53.054Z,3.97
2023-02-19T14:49:19.553Z,2.23
2023-02-19T14:51:47.513Z,2.90
2023-02-19T14:54:15.820Z,3.20
2023-02-19T14:56:43.644Z,3.77
2023-02-19T14:59:13.199Z,4.03
2023-02-19T15:01:39.768Z,5.10
2023-02-19T15:04:06.556Z,3.20
2023-02-19T15:06:34.297Z,5.83
2023-02-19T15:09:03.525Z,1.80
2023-02-19T15:11:31.256Z,2.87
2023-02-19T15:13:58.982Z,7.13
2023-02-19T15:16:25.975Z,4.70
2023-02-19T15:18:52.589Z,6.13
2023-02-19T15:21:21.352Z,2.33
2023-02-19T15:23:47.877Z,3.67
2023-02-19T15:26:40.841Z,2.07
2023-02-19T15:29:14.288Z,6.30
2023-02-19T15:31:47.799Z,9.03
2023-02-19T15:34:32.709Z,5.33
2023-02-19T15:37:06.856Z,5.23
2023-02-19T15:39:51.534Z,5.10
2023-02-19T15:42:28.452Z,3.73
2023-02-19T15:45:04.056Z,9.47
2023-02-19T15:47:38.282Z,15.50
2023-02-19T15:50:09.025Z,19.20
2023-02-19T15:52:37.664Z,17.00
2023-02-19T15:55:24.521Z,14.13
2023-02-19T15:57:53.097Z,14.03
2023-02-19T16:00:52.101Z,6.37
2023-02-19T16:03:22.284Z,11.03
2023-02-19T16:06:10.675Z,7.27
2023-02-19T16:08:37.712Z,50.23
2023-02-19T16:11:05.255Z,6.63
2023-02-19T16:13:32.290Z,6.20
2023-02-19T16:16:03.683Z,6.73
2023-02-19T16:18:31.366Z,7.10
2023-02-19T16:20:57.893Z,13.70
2023-02-19T16:23:25.498Z,15.00
2023-02-19T16:25:59.086Z,10.67
2023-02-19T16:28:26.132Z,8.43
2023-02-19T16:30:59.182Z,8.47
2023-02-19T16:33:41.889Z,13.10
2023-02-19T16:36:20.868Z,19.33
2023-02-19T16:39:06.946Z,15.23
2023-02-19T16:41:39.473Z,10.20
2023-02-19T16:44:21.683Z,10.23
2023-02-19T16:46:57.857Z,11.93
2023-02-19T16:49:24.370Z,8.93
2023-02-19T16:51:50.877Z,15.37
2023-02-19T16:54:17.352Z,15.87
2023-02-19T16:56:43.876Z,12.30
2023-02-19T16:59:10.374Z,11.50
2023-02-19T17:01:37.073Z,8.23
2023-02-19T17:04:04.665Z,11.27
2023-02-19T17:06:32.862Z,14.93
2023-02-19T17:08:59.354Z,13.10
2023-02-19T17:11:25.865Z,15.43
2023-02-19T17:13:52.407Z,22.07
2023-02-19T17:16:23.215Z,20.60
2023-02-19T17:18:49.887Z,14.40
2023-02-19T17:21:17.614Z,10.57
2023-02-19T17:23:44.560Z,13.70
2023-02-19T17:26:15.078Z,11.53
2023-02-19T17:28:41.667Z,13.00
2023-02-19T17:31:08.960Z,15.73
2023-02-19T17:33:35.507Z,13.87
2023-02-19T17:36:01.982Z,15.63
2023-02-19T17:38:28.686Z,13.07
2023-02-19T17:40:55.219Z,15.00
2023-02-19T17:43:21.694Z,14.90
2023-02-19T17:45:48.378Z,15.13
2023-02-19T17:48:15.066Z,11.73
2023-02-19T17:50:41.570Z,12.57
2023-02-19T17:53:08.093Z,13.17
2023-02-19T17:55:34.677Z,14.07
2023-02-19T17:58:01.215Z,12.57
2023-02-19T18:00:28.939Z,10.77
2023-02-19T18:02:55.587Z,12.87
2023-02-19T18:05:22.145Z,15.70
2023-02-19T18:07:48.992Z,8.40
2023-02-19T18:10:16.028Z,9.10
2023-02-19T18:12:42.802Z,7.53
2023-02-19T18:15:09.579Z,11.17
2023-02-19T18:17:36.260Z,7.00
2023-02-19T18:20:04.816Z,6.33
2023-02-19T18:22:32.402Z,8.57
2023-02-19T18:24:59.139Z,12.53
2023-02-19T18:27:25.825Z,8.03
2023-02-19T18:29:53.180Z,10.03
2023-02-19T18:32:23.493Z,12.27
2023-02-19T18:34:54.016Z,11.90
2023-02-19T18:37:22.714Z,13.20
2023-02-19T18:39:49.390Z,11.17
2023-02-19T18:42:16.230Z,16.00
2023-02-19T18:44:42.945Z,11.40
2023-02-19T18:47:11.501Z,9.57
2023-02-19T18:49:38.152Z,7.47
2023-02-19T18:52:04.740Z,11.63
2023-02-19T18:54:31.354Z,11.37
2023-02-19T18:56:58.379Z,6.10
2023-02-19T18:59:24.855Z,7.33
2023-02-19T19:01:51.483Z,9.20
2023-02-19T19:04:17.991Z,11.73
2023-02-19T19:06:44.558Z,13.13
2023-02-19T19:09:11.031Z,12.30
2023-02-19T19:11:38.509Z,9.17
2023-02-19T19:14:05.017Z,7.93
2023-02-19T19:16:31.486Z,9.97
2023-02-19T19:18:58.126Z,11.47
2023-02-19T19:21:24.710Z,13.40
2023-02-19T19:23:51.242Z,13.30
2023-02-19T19:26:17.752Z,15.23
2023-02-19T19:28:44.746Z,12.17
2023-02-19T19:31:12.679Z,11.67
2023-02-19T19:33:39.560Z,18.37
2023-02-19T19:36:06.382Z,17.00
2023-02-19T19:38:32.955Z,18.77
2023-02-19T19:40:59.576Z,18.57
2023-02-19T19:43:27.071Z,27.83
2023-02-19T19:45:53.761Z,24.87
2023-02-19T19:48:20.350Z,28.03
2023-02-19T19:50:46.843Z,30.83
2023-02-19T19:53:13.515Z,31.27
2023-02-19T19:55:40.108Z,28.37
2023-02-19T19:58:06.646Z,29.07
2023-02-19T20:00:33.130Z,29.37
2023-02-19T20:02:59.745Z,33.40
2023-02-19T20:05:26.355Z,40.43
2023-02-19T20:07:53.387Z,42.23
2023-02-19T20:10:20.139Z,36.70
2023-02-19T20:12:46.784Z,42.53
2023-02-19T20:15:13.685Z,35.60
2023-02-19T20:17:40.183Z,39.47
2023-02-19T20:20:06.910Z,36.20
2023-02-19T20:22:33.439Z,37.83
2023-02-19T20:25:00.004Z,39.67
2023-02-19T20:27:26.538Z,40.77
2023-02-19T20:29:52.997Z,36.27
2023-02-19T20:32:19.593Z,40.97
2023-02-19T20:34:46.558Z,34.60
2023-02-19T20:37:13.099Z,33.67
2023-02-19T20:39:39.706Z,32.70
2023-02-19T20:42:06.452Z,32.20
2023-02-19T20:44:33.594Z,29.20
2023-02-19T20:47:00.225Z,38.10
2023-02-19T20:49:27.721Z,38.80
2023-02-19T20:51:55.243Z,42.07
2023-02-19T20:54:22.744Z,36.93
2023-02-19T20:56:50.054Z,38.37
2023-02-19T20:59:16.692Z,25.10
2023-02-19T21:01:43.306Z,23.33
2023-02-19T21:04:10.073Z,27.60
2023-02-19T21:06:36.851Z,27.00
2023-02-19T21:09:03.598Z,26.10
2023-02-19T21:11:30.236Z,31.93
2023-02-19T21:13:59.250Z,29.50
2023-02-19T21:16:26.502Z,25.03
2023-02-19T21:18:53.091Z,24.83
2023-02-19T21:21:21.188Z,26.87
2023-02-19T21:23:47.784Z,26.10
2023-02-19T21:26:14.470Z,29.17
2023-02-19T21:28:41.021Z,27.57
2023-02-19T21:31:07.858Z,24.73
2023-02-19T21:33:34.444Z,23.10
2023-02-19T21:36:04.311Z,21.23
2023-02-19T21:38:32.619Z,20.77
2023-02-19T21:40:59.277Z,17.70
2023-02-19T21:43:25.802Z,23.93
2023-02-19T21:45:52.319Z,19.77
2023-02-19T21:48:18.962Z,19.53
2023-02-19T21:50:45.671Z,23.83
2023-02-19T21:53:12.979Z,21.00
2023-02-19T21:55:42.905Z,17.70
2023-02-19T21:58:16.490Z,18.43
2023-02-19T22:00:42.970Z,20.97
2023-02-19T22:03:14.419Z,21.23
2023-02-19T22:05:40.921Z,22.80
2023-02-19T22:08:07.468Z,21.87
2023-02-19T22:10:33.976Z,18.83
2023-02-19T22:13:00.540Z,23.73
2023-02-19T22:15:27.042Z,21.40
2023-02-19T22:17:53.581Z,18.03
2023-02-19T22:20:20.087Z,19.37
2023-02-19T22:22:46.569Z,21.40
2023-02-19T22:25:13.222Z,17.30
2023-02-19T22:27:39.725Z,20.03
2023-02-19T22:30:06.640Z,18.77
2023-02-19T22:32:33.351Z,20.30
2023-02-19T22:35:00.009Z,21.57
2023-02-19T22:37:26.642Z,18.17
2023-02-19T22:39:53.182Z,21.27
2023-02-19T22:42:20.855Z,19.07
2023-02-19T22:44:47.352Z,23.33
2023-02-19T22:47:13.881Z,23.60
2023-02-19T22:49:41.714Z,22.47
2023-02-19T22:52:09.288Z,23.37
2023-02-19T22:54:36.069Z,23.50
2023-02-19T22:57:02.732Z,21.27
2023-02-19T22:59:29.289Z,22.77
2023-02-19T23:01:55.857Z,22.50
2023-02-19T23:04:22.756Z,20.50
2023-02-19T23:06:49.453Z,23.60
2023-02-19T23:09:15.989Z,23.67
2023-02-19T23:11:42.577Z,22.13
2023-02-19T23:14:09.191Z,28.67
2023-02-19T23:16:36.761Z,24.03
2023-02-19T23:19:04.992Z,21.90
2023-02-19T23:21:31.544Z,18.87
2023-02-19T23:23:58.055Z,18.90
2023-02-19T23:26:24.659Z,22.70
2023-02-19T23:28:51.190Z,18.63
2023-02-19T23:31:17.876Z,17.33
2023-02-19T23:33:44.666Z,17.80
2023-02-19T23:36:11.476Z,18.03
2023-02-19T23:38:38.229Z,24.50
2023-02-19T23:41:08.378Z,17.63
2023-02-19T23:43:34.908Z,19.13
2023-02-19T23:46:01.961Z,18.67
2023-02-19T23:48:28.450Z,19.67
2023-02-19T23:50:54.986Z,19.27
2023-02-19T23:53:21.560Z,16.57
2023-02-19T23:55:48.070Z,17.60
2023-02-19T23:58:14.634Z,20.17
